Time;durP1;ratioP1;P1;durP2;ratioP2;P2;SDS_P1;SDS_P2;PMS_P1;PMS_P2;Temp;Humidity;BMP_temperature;BMP_pressure;BME280_temperature;BME280_humidity;BME280_pressure;Samples;Min_cycle;Max_cycle;Signal;HPM_P1;HPM_P2
2023/01/31 00:00:17;;;;;;;6.68;4.63;;;;;;;;;;5063708;28;20197;-67
2023/01/31 00:02:44;;;;;;;8.90;4.25;;;;;;;;;;5063743;28;20201;-67
2023/01/31 00:05:10;;;;;;;8.45;4.40;;;;;;;;;;5063902;28;20204;-67
2023/01/31 00:07:36;;;;;;;7.72;4.47;;;;;;;;;;5064020;28;20204;-67
2023/01/31 00:10:04;;;;;;;4.82;4.20;;;;;;;;;;5063627;28;20217;-68
2023/01/31 00:12:30;;;;;;;9.73;4.20;;;;;;;;;;5063412;28;20204;-67
2023/01/31 00:14:56;;;;;;;9.70;4.53;;;;;;;;;;5063481;28;20204;-67
2023/01/31 00:17:23;;;;;;;6.90;4.05;;;;;;;;;;5063969;28;20205;-69
2023/01/31 00:19:49;;;;;;;5.93;3.92;;;;;;;;;;5063549;28;20200;-69
2023/01/31 00:22:15;;;;;;;9.90;4.82;;;;;;;;;;5063309;28;20243;-69
2023/01/31 00:24:41;;;;;;;6.72;4.03;;;;;;;;;;5063658;28;20197;-69
2023/01/31 00:27:09;;;;;;;7.25;4.10;;;;;;;;;;5063105;28;20209;-67
2023/01/31 00:29:35;;;;;;;8.18;4.53;;;;;;;;;;5063153;28;20315;-68
2023/01/31 00:32:02;;;;;;;5.90;4.25;;;;;;;;;;5063066;28;20466;-69
2023/01/31 00:34:29;;;;;;;9.82;4.68;;;;;;;;;;5063429;28;20204;-67
2023/01/31 00:36:55;;;;;;;9.52;3.95;;;;;;;;;;5063053;28;20204;-68
2023/01/31 00:39:21;;;;;;;9.10;4.25;;;;;;;;;;5063243;28;20193;-67
2023/01/31 00:41:47;;;;;;;11.30;4.50;;;;;;;;;;5062759;28;20208;-69
2023/01/31 00:44:15;;;;;;;8.48;4.40;;;;;;;;;;5063141;28;20224;-67
2023/01/31 00:46:41;;;;;;;5.95;4.10;;;;;;;;;;5063264;28;20204;-69
2023/01/31 00:49:08;;;;;;;6.15;4.50;;;;;;;;;;5063017;28;20494;-67
2023/01/31 00:51:34;;;;;;;5.50;4.32;;;;;;;;;;5062416;28;20197;-69
2023/01/31 00:54:00;;;;;;;6.78;3.70;;;;;;;;;;5062795;28;20204;-69
2023/01/31 00:56:26;;;;;;;6.60;4.00;;;;;;;;;;5062697;28;20197;-69
2023/01/31 00:58:54;;;;;;;7.85;4.03;;;;;;;;;;5062953;28;20427;-69
2023/01/31 01:01:22;;;;;;;4.25;3.85;;;;;;;;;;5062486;28;20224;-69
2023/01/31 01:03:49;;;;;;;7.80;4.22;;;;;;;;;;5062474;28;20500;-69
2023/01/31 01:06:15;;;;;;;6.65;4.15;;;;;;;;;;5062627;28;20201;-69
2023/01/31 01:08:42;;;;;;;7.57;4.00;;;;;;;;;;5062469;28;20217;-69
2023/01/31 01:11:09;;;;;;;7.45;3.90;;;;;;;;;;5062500;28;20205;-69
2023/01/31 01:13:36;;;;;;;5.10;3.95;;;;;;;;;;5062646;28;20224;-67
2023/01/31 01:16:06;;;;;;;12.30;4.03;;;;;;;;;;5062697;28;20489;-67
2023/01/31 01:18:34;;;;;;;7.63;4.05;;;;;;;;;;5062414;28;20193;-69
2023/01/31 01:21:04;;;;;;;5.80;3.72;;;;;;;;;;5062515;28;20205;-69
2023/01/31 01:23:31;;;;;;;9.52;4.28;;;;;;;;;;5062019;28;20243;-68
2023/01/31 01:25:57;;;;;;;7.18;4.10;;;;;;;;;;5062284;28;20197;-68
2023/01/31 01:28:23;;;;;;;8.50;4.18;;;;;;;;;;5062307;28;20326;-68
2023/01/31 01:30:49;;;;;;;7.10;3.80;;;;;;;;;;5062193;28;20204;-68
2023/01/31 01:33:16;;;;;;;5.47;3.50;;;;;;;;;;5062144;28;20204;-67
2023/01/31 01:35:43;;;;;;;10.73;4.28;;;;;;;;;;5061770;28;20197;-68
2023/01/31 01:38:11;;;;;;;12.77;4.15;;;;;;;;;;5061116;28;20201;-68
2023/01/31 01:40:38;;;;;;;14.70;4.20;;;;;;;;;;5061869;28;20204;-68
2023/01/31 01:43:04;;;;;;;10.93;3.85;;;;;;;;;;5061693;28;20219;-68
2023/01/31 01:45:31;;;;;;;6.82;3.75;;;;;;;;;;5062397;28;20272;-68
2023/01/31 01:47:59;;;;;;;5.65;3.80;;;;;;;;;;5061881;28;20197;-68
2023/01/31 01:50:27;;;;;;;8.15;4.20;;;;;;;;;;5061836;28;20220;-68
2023/01/31 01:52:58;;;;;;;10.30;3.70;;;;;;;;;;5061558;28;20204;-67
2023/01/31 01:55:26;;;;;;;5.28;3.45;;;;;;;;;;5061792;28;20220;-68
2023/01/31 01:57:55;;;;;;;10.48;3.50;;;;;;;;;;5061802;28;20197;-68
2023/01/31 02:00:22;;;;;;;8.07;3.75;;;;;;;;;;5061910;28;20533;-68
2023/01/31 02:02:49;;;;;;;6.00;3.38;;;;;;;;;;5061636;28;20211;-68
2023/01/31 02:05:16;;;;;;;5.43;3.47;;;;;;;;;;5061543;28;20208;-68
2023/01/31 02:07:43;;;;;;;7.05;3.70;;;;;;;;;;5061977;28;20500;-68
2023/01/31 02:10:13;;;;;;;7.55;3.80;;;;;;;;;;5061601;28;20544;-68
2023/01/31 02:12:39;;;;;;;10.63;3.30;;;;;;;;;;5061650;28;20197;-68
2023/01/31 02:15:06;;;;;;;10.63;3.30;;;;;;;;;;5061531;28;20207;-68
2023/01/31 02:17:33;;;;;;;7.82;3.42;;;;;;;;;;5061291;28;20251;-68
2023/01/31 02:20:04;;;;;;;6.90;3.70;;;;;;;;;;5061661;28;20505;-68
2023/01/31 02:22:33;;;;;;;6.75;3.38;;;;;;;;;;5061520;28;20197;-68
2023/01/31 02:25:21;;;;;;;9.10;3.45;;;;;;;;;;5062000;28;20197;-68
2023/01/31 02:28:05;;;;;;;7.07;3.88;;;;;;;;;;5061486;28;20217;-68
2023/01/31 02:30:44;;;;;;;8.88;4.00;;;;;;;;;;5055966;28;20225;-68
2023/01/31 02:33:18;;;;;;;10.65;3.78;;;;;;;;;;5061122;28;20408;-68
2023/01/31 02:35:51;;;;;;;10.10;3.38;;;;;;;;;;5061752;28;20396;-68
2023/01/31 02:38:23;;;;;;;7.55;3.53;;;;;;;;;;5053743;28;20209;-68
2023/01/31 02:40:52;;;;;;;5.88;3.50;;;;;;;;;;5061482;28;20197;-67
2023/01/31 02:43:21;;;;;;;4.63;3.10;;;;;;;;;;5061221;28;20197;-68
2023/01/31 02:45:49;;;;;;;7.15;3.67;;;;;;;;;;5061682;28;20239;-68
2023/01/31 02:48:20;;;;;;;9.98;3.40;;;;;;;;;;5053634;28;20443;-68
2023/01/31 02:50:49;;;;;;;11.30;4.45;;;;;;;;;;5061306;28;20439;-68
2023/01/31 02:53:17;;;;;;;10.07;4.07;;;;;;;;;;5053345;28;20532;-68
2023/01/31 02:58:31;;;;;;;9.43;3.72;;;;;;;;;;5055126;28;20204;-68
2023/01/31 03:00:58;;;;;;;6.97;4.00;;;;;;;;;;5061635;28;20370;-68
2023/01/31 03:03:27;;;;;;;7.28;3.50;;;;;;;;;;5061082;28;20201;-67
2023/01/31 03:06:09;;;;;;;9.63;3.88;;;;;;;;;;5061239;28;20484;-67
2023/01/31 03:08:36;;;;;;;7.78;3.80;;;;;;;;;;5061320;28;20489;-67
2023/01/31 03:11:03;;;;;;;12.02;4.00;;;;;;;;;;5060939;28;20540;-67
2023/01/31 03:13:44;;;;;;;5.72;3.63;;;;;;;;;;5062060;28;20505;-68
2023/01/31 03:19:12;;;;;;;10.20;4.22;;;;;;;;;;5064577;28;20204;-68
2023/01/31 03:21:39;;;;;;;6.13;3.30;;;;;;;;;;5064652;28;20200;-67
2023/01/31 03:24:06;;;;;;;10.63;4.22;;;;;;;;;;5064338;28;20204;-68
2023/01/31 03:26:33;;;;;;;6.85;4.18;;;;;;;;;;5064570;28;20197;-68
2023/01/31 03:29:00;;;;;;;9.48;3.42;;;;;;;;;;5064465;28;20221;-68
2023/01/31 03:31:29;;;;;;;9.40;3.75;;;;;;;;;;5064355;28;20197;-68
2023/01/31 03:33:57;;;;;;;8.50;3.53;;;;;;;;;;5064344;28;20368;-67
2023/01/31 03:36:28;;;;;;;11.93;4.88;;;;;;;;;;5064248;28;20213;-68
2023/01/31 03:38:57;;;;;;;6.82;3.97;;;;;;;;;;5064169;28;20197;-68
2023/01/31 03:41:27;;;;;;;8.60;3.90;;;;;;;;;;5064226;28;20225;-68
2023/01/31 03:43:58;;;;;;;8.05;3.20;;;;;;;;;;5064323;28;20243;-68
2023/01/31 03:46:26;;;;;;;7.82;3.75;;;;;;;;;;5064290;28;20197;-68
2023/01/31 03:48:54;;;;;;;9.63;3.70;;;;;;;;;;5064128;28;20368;-68
2023/01/31 03:51:23;;;;;;;6.47;3.63;;;;;;;;;;5063933;28;20225;-68
2023/01/31 03:53:52;;;;;;;7.00;3.63;;;;;;;;;;5063946;28;20201;-68
2023/01/31 03:56:21;;;;;;;6.63;3.50;;;;;;;;;;5064058;28;20197;-68
2023/01/31 03:58:49;;;;;;;5.72;3.42;;;;;;;;;;5064218;28;20201;-68
2023/01/31 04:01:17;;;;;;;7.63;3.72;;;;;;;;;;5055942;28;20200;-68
2023/01/31 04:03:44;;;;;;;6.82;3.53;;;;;;;;;;5063591;28;20539;-68
2023/01/31 04:06:11;;;;;;;5.15;3.50;;;;;;;;;;5063634;28;20393;-68
2023/01/31 04:08:37;;;;;;;10.35;3.90;;;;;;;;;;5063917;28;20197;-68
2023/01/31 04:11:06;;;;;;;8.13;3.22;;;;;;;;;;5063628;28;20217;-68
2023/01/31 04:13:32;;;;;;;5.28;3.60;;;;;;;;;;5063575;28;20197;-67
2023/01/31 04:15:58;;;;;;;11.75;3.83;;;;;;;;;;5063423;28;20259;-68
2023/01/31 04:18:24;;;;;;;9.95;3.92;;;;;;;;;;5063690;28;20640;-68
2023/01/31 04:20:51;;;;;;;5.53;3.60;;;;;;;;;;5063505;28;20193;-68
2023/01/31 04:23:18;;;;;;;10.43;4.15;;;;;;;;;;5063407;28;20196;-68
2023/01/31 04:25:44;;;;;;;17.85;7.10;;;;;;;;;;5063782;28;20197;-68
2023/01/31 04:28:12;;;;;;;11.13;6.00;;;;;;;;;;5063398;28;20224;-68
2023/01/31 04:30:38;;;;;;;13.57;4.05;;;;;;;;;;5063274;28;20217;-68
2023/01/31 04:33:04;;;;;;;11.18;4.10;;;;;;;;;;5063085;28;20212;-68
2023/01/31 04:35:30;;;;;;;13.70;4.10;;;;;;;;;;5063600;28;20235;-68
2023/01/31 04:37:57;;;;;;;14.93;6.70;;;;;;;;;;5063313;28;20235;-68
2023/01/31 04:40:23;;;;;;;14.77;6.10;;;;;;;;;;5063470;28;20197;-68
2023/01/31 04:42:49;;;;;;;10.00;5.43;;;;;;;;;;5062991;28;20251;-68
2023/01/31 04:45:17;;;;;;;19.75;7.57;;;;;;;;;;5062945;28;20197;-68
2023/01/31 04:47:44;;;;;;;13.02;8.00;;;;;;;;;;5063070;28;20197;-68
2023/01/31 04:50:10;;;;;;;13.23;7.43;;;;;;;;;;5062844;28;20217;-68
2023/01/31 04:52:37;;;;;;;16.90;9.05;;;;;;;;;;5063053;28;20201;-68
2023/01/31 04:55:03;;;;;;;11.90;7.20;;;;;;;;;;5063005;28;20504;-68
2023/01/31 04:57:29;;;;;;;13.07;5.80;;;;;;;;;;5063038;28;20201;-68
2023/01/31 04:59:55;;;;;;;12.50;4.80;;;;;;;;;;5062579;28;20381;-68
2023/01/31 05:02:23;;;;;;;8.68;3.97;;;;;;;;;;5062644;28;20230;-68
2023/01/31 05:04:49;;;;;;;7.82;4.00;;;;;;;;;;5062895;28;20251;-68
2023/01/31 05:07:15;;;;;;;7.47;3.50;;;;;;;;;;5062693;28;20427;-68
2023/01/31 05:09:42;;;;;;;11.68;4.13;;;;;;;;;;5062617;28;20419;-68
2023/01/31 05:12:09;;;;;;;8.57;4.25;;;;;;;;;;5062211;28;20208;-68
2023/01/31 05:14:35;;;;;;;4.38;3.35;;;;;;;;;;5062694;28;20224;-68
2023/01/31 05:17:01;;;;;;;10.60;4.10;;;;;;;;;;5062435;28;20201;-68
2023/01/31 05:19:29;;;;;;;10.77;4.00;;;;;;;;;;5062493;28;20645;-68
2023/01/31 05:21:57;;;;;;;11.10;3.92;;;;;;;;;;5062034;28;20251;-68
2023/01/31 05:24:24;;;;;;;10.13;4.20;;;;;;;;;;5062472;28;20197;-67
2023/01/31 05:26:55;;;;;;;11.32;4.32;;;;;;;;;;5062355;28;20259;-68
2023/01/31 05:29:21;;;;;;;14.52;3.95;;;;;;;;;;5062563;28;20430;-68
2023/01/31 05:31:50;;;;;;;9.98;3.83;;;;;;;;;;5062347;28;20217;-68
2023/01/31 05:34:16;;;;;;;4.45;3.40;;;;;;;;;;5054657;28;20212;-68
2023/01/31 05:36:43;;;;;;;11.05;4.78;;;;;;;;;;5061787;28;20366;-68
2023/01/31 05:39:10;;;;;;;7.28;3.92;;;;;;;;;;5062049;28;20197;-68
2023/01/31 05:41:36;;;;;;;7.25;4.13;;;;;;;;;;5061834;28;20197;-68
2023/01/31 05:44:02;;;;;;;8.52;4.35;;;;;;;;;;5061906;28;20196;-68
2023/01/31 05:46:29;;;;;;;10.35;4.10;;;;;;;;;;5061961;28;20207;-68
2023/01/31 05:48:55;;;;;;;5.38;3.72;;;;;;;;;;5061879;28;20196;-68
2023/01/31 05:51:21;;;;;;;8.48;4.60;;;;;;;;;;5061861;28;20217;-68
2023/01/31 05:53:49;;;;;;;10.77;4.53;;;;;;;;;;5061546;28;20239;-68
2023/01/31 05:56:15;;;;;;;8.38;4.32;;;;;;;;;;5053696;28;20208;-68
2023/01/31 05:58:41;;;;;;;6.90;3.97;;;;;;;;;;5061813;28;20230;-68
2023/01/31 06:01:08;;;;;;;9.45;4.00;;;;;;;;;;5061881;28;20228;-68
2023/01/31 06:03:35;;;;;;;4.90;3.50;;;;;;;;;;5046129;28;20319;-68
2023/01/31 06:06:03;;;;;;;7.53;4.28;;;;;;;;;;5045827;28;20224;-69
2023/01/31 06:08:30;;;;;;;7.82;3.80;;;;;;;;;;5050829;28;20221;-69
2023/01/31 06:11:00;;;;;;;7.65;3.97;;;;;;;;;;5052992;28;20236;-69
2023/01/31 06:13:27;;;;;;;13.40;4.55;;;;;;;;;;5053262;28;20216;-69
2023/01/31 06:15:53;;;;;;;5.03;3.92;;;;;;;;;;5049456;28;20220;-69
2023/01/31 06:18:19;;;;;;;13.77;4.20;;;;;;;;;;5044291;28;20501;-69
2023/01/31 06:20:45;;;;;;;7.25;4.20;;;;;;;;;;5041093;28;20298;-69
2023/01/31 06:23:12;;;;;;;10.57;4.82;;;;;;;;;;5048421;28;20442;-69
2023/01/31 06:25:38;;;;;;;8.27;3.92;;;;;;;;;;5050267;28;20217;-69
2023/01/31 06:28:06;;;;;;;7.82;4.53;;;;;;;;;;5050342;28;20271;-69
2023/01/31 06:30:32;;;;;;;9.20;4.57;;;;;;;;;;5051181;28;20220;-69
2023/01/31 06:32:59;;;;;;;10.70;5.25;;;;;;;;;;5050080;28;20418;-69
2023/01/31 06:35:25;;;;;;;10.45;4.47;;;;;;;;;;5050066;28;20213;-70
2023/01/31 06:37:51;;;;;;;11.40;4.72;;;;;;;;;;5051170;28;20216;-70
2023/01/31 06:40:18;;;;;;;5.68;4.35;;;;;;;;;;5050792;28;20204;-70
2023/01/31 06:42:44;;;;;;;7.05;4.13;;;;;;;;;;5051167;28;20205;-70
2023/01/31 06:45:11;;;;;;;7.75;4.10;;;;;;;;;;5051025;28;20666;-70
2023/01/31 06:47:38;;;;;;;9.00;4.53;;;;;;;;;;5052089;28;20529;-70
2023/01/31 06:50:04;;;;;;;8.55;4.95;;;;;;;;;;5055004;28;20591;-70
2023/01/31 06:52:30;;;;;;;7.63;4.75;;;;;;;;;;5055337;28;20473;-70
2023/01/31 06:54:57;;;;;;;8.60;4.68;;;;;;;;;;5054452;28;20217;-70
2023/01/31 06:57:23;;;;;;;11.38;4.47;;;;;;;;;;5054429;28;20501;-70
2023/01/31 06:59:49;;;;;;;8.73;4.03;;;;;;;;;;5055176;28;20209;-70
2023/01/31 07:02:17;;;;;;;8.05;4.32;;;;;;;;;;5046298;28;20209;-70
2023/01/31 07:04:43;;;;;;;9.20;4.50;;;;;;;;;;5054842;28;20217;-70
2023/01/31 07:07:09;;;;;;;10.32;4.63;;;;;;;;;;5054993;28;20228;-70
2023/01/31 07:09:36;;;;;;;7.57;4.93;;;;;;;;;;5055714;28;20212;-70
2023/01/31 07:12:02;;;;;;;12.05;5.72;;;;;;;;;;5046564;28;20231;-70
2023/01/31 07:14:28;;;;;;;8.35;4.90;;;;;;;;;;5054616;28;20615;-70
2023/01/31 07:16:55;;;;;;;10.52;5.00;;;;;;;;;;5053908;28;20368;-70
2023/01/31 07:19:22;;;;;;;7.38;5.05;;;;;;;;;;5051854;28;20229;-70
2023/01/31 07:21:48;;;;;;;9.55;4.82;;;;;;;;;;5053725;28;20213;-70
2023/01/31 07:24:15;;;;;;;11.30;5.25;;;;;;;;;;5051312;28;20217;-70
2023/01/31 07:26:41;;;;;;;11.68;5.10;;;;;;;;;;5050056;28;20217;-70
2023/01/31 07:29:07;;;;;;;14.40;5.65;;;;;;;;;;5054506;28;20239;-70
2023/01/31 07:31:34;;;;;;;6.10;4.50;;;;;;;;;;5050096;28;20532;-70
2023/01/31 07:34:01;;;;;;;10.02;5.13;;;;;;;;;;5053321;28;20212;-58
2023/01/31 07:36:29;;;;;;;10.05;4.97;;;;;;;;;;5053219;28;20289;-58
2023/01/31 07:38:56;;;;;;;7.88;4.75;;;;;;;;;;5049192;28;20213;-58
2023/01/31 07:41:22;;;;;;;6.78;4.90;;;;;;;;;;5054715;28;20255;-58
2023/01/31 07:43:48;;;;;;;6.22;4.85;;;;;;;;;;5054374;28;20271;-59
2023/01/31 07:46:15;;;;;;;12.18;5.53;;;;;;;;;;5047896;28;20524;-57
2023/01/31 07:48:41;;;;;;;9.27;5.28;;;;;;;;;;5055506;28;20398;-58
2023/01/31 07:51:07;;;;;;;10.85;5.70;;;;;;;;;;5054395;28;20707;-58
2023/01/31 07:53:40;;;;;;;10.15;5.30;;;;;;;;;;5054704;28;20210;-59
2023/01/31 07:56:07;;;;;;;8.07;4.70;;;;;;;;;;5048081;28;20449;-59
2023/01/31 07:58:34;;;;;;;9.18;5.35;;;;;;;;;;5054239;28;20544;-59
2023/01/31 08:03:45;;;;;;;11.15;5.50;;;;;;;;;;5054955;28;20227;-58
2023/01/31 08:06:12;;;;;;;8.60;5.30;;;;;;;;;;5050499;28;20217;-59
2023/01/31 08:08:40;;;;;;;9.25;5.85;;;;;;;;;;5049966;28;20220;-57
2023/01/31 08:11:07;;;;;;;8.95;5.32;;;;;;;;;;5055613;28;20225;-58
2023/01/31 08:13:34;;;;;;;12.27;5.30;;;;;;;;;;5046271;28;20275;-58
2023/01/31 08:16:00;;;;;;;14.10;5.50;;;;;;;;;;5055665;28;20442;-58
2023/01/31 08:18:26;;;;;;;10.75;5.40;;;;;;;;;;5051989;28;20271;-58
2023/01/31 08:20:53;;;;;;;12.48;4.70;;;;;;;;;;5057214;28;20299;-58
2023/01/31 08:23:19;;;;;;;13.55;5.70;;;;;;;;;;5050204;28;20213;-58
2023/01/31 08:25:47;;;;;;;12.60;5.20;;;;;;;;;;5048459;28;20447;-58
2023/01/31 08:28:14;;;;;;;11.30;5.10;;;;;;;;;;5056492;28;20228;-57
2023/01/31 08:30:41;;;;;;;14.43;6.43;;;;;;;;;;5048820;28;20424;-58
2023/01/31 08:33:07;;;;;;;14.43;6.30;;;;;;;;;;5053919;28;20213;-59
2023/01/31 08:35:33;;;;;;;11.63;4.90;;;;;;;;;;5049035;28;20209;-59
2023/01/31 08:37:59;;;;;;;12.77;5.40;;;;;;;;;;5055328;28;20208;-59
2023/01/31 08:40:26;;;;;;;11.77;5.28;;;;;;;;;;5050408;28;20209;-58
2023/01/31 08:42:57;;;;;;;10.27;5.93;;;;;;;;;;5056068;28;20535;-56
2023/01/31 08:45:23;;;;;;;17.63;5.97;;;;;;;;;;5049617;28;21370;-58
2023/01/31 08:47:53;;;;;;;16.23;6.57;;;;;;;;;;5051992;28;20470;-59
2023/01/31 08:50:19;;;;;;;17.58;5.28;;;;;;;;;;5053248;28;20420;-59
2023/01/31 08:52:45;;;;;;;10.05;4.97;;;;;;;;;;5056740;28;20256;-58
2023/01/31 08:55:12;;;;;;;7.28;4.72;;;;;;;;;;5053997;28;20559;-58
2023/01/31 08:57:39;;;;;;;10.70;5.38;;;;;;;;;;5056087;28;20210;-61
2023/01/31 09:00:07;;;;;;;11.57;4.70;;;;;;;;;;5055579;28;20426;-59
2023/01/31 09:02:34;;;;;;;13.70;5.05;;;;;;;;;;5055271;28;20213;-58
2023/01/31 09:05:00;;;;;;;11.23;4.85;;;;;;;;;;5047179;28;20650;-59
2023/01/31 09:07:26;;;;;;;8.90;4.53;;;;;;;;;;5054205;28;20513;-58
2023/01/31 09:09:52;;;;;;;7.38;4.20;;;;;;;;;;5044026;28;20209;-59
2023/01/31 09:12:19;;;;;;;11.32;4.78;;;;;;;;;;5055415;28;20232;-59
2023/01/31 09:14:45;;;;;;;16.45;5.60;;;;;;;;;;5055537;28;20254;-60
2023/01/31 09:17:12;;;;;;;11.52;4.63;;;;;;;;;;5055963;28;20209;-59
2023/01/31 09:19:39;;;;;;;12.98;5.18;;;;;;;;;;5054781;28;20444;-58
2023/01/31 09:22:05;;;;;;;9.80;4.47;;;;;;;;;;5053721;28;20262;-59
2023/01/31 09:24:31;;;;;;;7.10;3.95;;;;;;;;;;5053347;28;20388;-59
2023/01/31 09:26:57;;;;;;;12.90;4.53;;;;;;;;;;5055313;28;20666;-58
2023/01/31 09:29:24;;;;;;;8.40;4.32;;;;;;;;;;5049014;28;20574;-56
2023/01/31 09:31:50;;;;;;;8.38;4.18;;;;;;;;;;5054801;28;20225;-58
2023/01/31 09:34:18;;;;;;;9.23;3.53;;;;;;;;;;5046673;28;20216;-59
2023/01/31 09:36:45;;;;;;;13.88;4.43;;;;;;;;;;5051871;28;20209;-59
2023/01/31 09:39:12;;;;;;;8.45;3.53;;;;;;;;;;5051082;28;20217;-60
2023/01/31 09:41:41;;;;;;;8.27;3.53;;;;;;;;;;5050851;28;20534;-59
2023/01/31 09:44:11;;;;;;;7.25;3.38;;;;;;;;;;5046401;28;20213;-58
2023/01/31 09:46:39;;;;;;;7.32;3.42;;;;;;;;;;5046174;28;20328;-58
2023/01/31 09:49:08;;;;;;;10.90;4.18;;;;;;;;;;5044544;28;20521;-59
2023/01/31 09:51:37;;;;;;;12.15;3.50;;;;;;;;;;5052264;28;20556;-58
2023/01/31 09:54:06;;;;;;;8.43;3.47;;;;;;;;;;5055033;28;20445;-59
2023/01/31 09:56:37;;;;;;;10.32;3.85;;;;;;;;;;5055402;28;20221;-59
2023/01/31 09:59:06;;;;;;;8.95;3.50;;;;;;;;;;5055732;28;20204;-59
2023/01/31 10:01:37;;;;;;;7.30;3.72;;;;;;;;;;5055450;28;20215;-59
2023/01/31 10:04:14;;;;;;;10.18;3.38;;;;;;;;;;5054656;28;20451;-59
2023/01/31 10:06:45;;;;;;;9.63;3.67;;;;;;;;;;5054526;28;20523;-59
2023/01/31 10:09:14;;;;;;;5.97;3.53;;;;;;;;;;5054825;28;20455;-59
2023/01/31 10:11:43;;;;;;;7.82;3.65;;;;;;;;;;5055464;28;20474;-59
2023/01/31 10:14:18;;;;;;;8.18;3.42;;;;;;;;;;5054175;28;20220;-58
2023/01/31 10:16:49;;;;;;;8.35;3.53;;;;;;;;;;5053013;28;20451;-59
2023/01/31 10:19:18;;;;;;;11.10;3.58;;;;;;;;;;5040237;28;20220;-57
2023/01/31 10:21:49;;;;;;;12.25;3.80;;;;;;;;;;5034130;28;20501;-58
2023/01/31 10:24:20;;;;;;;10.77;4.03;;;;;;;;;;5037927;28;20255;-58
2023/01/31 10:26:48;;;;;;;10.73;3.72;;;;;;;;;;5038466;28;20240;-59
2023/01/31 10:29:17;;;;;;;6.03;2.90;;;;;;;;;;5037566;28;20475;-57
2023/01/31 10:31:45;;;;;;;10.30;3.35;;;;;;;;;;5038581;28;20245;-60
2023/01/31 10:34:14;;;;;;;10.07;3.15;;;;;;;;;;5038616;28;20210;-61
2023/01/31 10:36:43;;;;;;;11.30;3.53;;;;;;;;;;5038152;28;20534;-61
2023/01/31 10:39:15;;;;;;;11.10;3.28;;;;;;;;;;5038383;28;20217;-61
2023/01/31 10:41:45;;;;;;;7.95;3.22;;;;;;;;;;5038562;28;20216;-59
2023/01/31 10:44:18;;;;;;;7.78;3.22;;;;;;;;;;5057403;28;20228;-59
2023/01/31 10:46:44;;;;;;;10.82;2.95;;;;;;;;;;5058172;28;20449;-59
2023/01/31 10:49:10;;;;;;;9.60;3.42;;;;;;;;;;5058587;28;20540;-57
2023/01/31 10:51:49;;;;;;;9.80;3.08;;;;;;;;;;5058633;28;20536;-58
2023/01/31 10:54:25;;;;;;;10.85;3.47;;;;;;;;;;5058228;28;20556;-59
2023/01/31 10:56:52;;;;;;;7.38;3.08;;;;;;;;;;5058935;28;20211;-59
2023/01/31 10:59:23;;;;;;;12.75;3.58;;;;;;;;;;5058644;28;20284;-59
2023/01/31 11:01:49;;;;;;;8.10;2.78;;;;;;;;;;5057911;28;20235;-59
2023/01/31 11:04:23;;;;;;;11.05;3.65;;;;;;;;;;5057938;28;20220;-59
2023/01/31 11:06:50;;;;;;;10.95;3.22;;;;;;;;;;5057863;28;20213;-58
2023/01/31 11:09:16;;;;;;;11.43;2.88;;;;;;;;;;5058018;28;20524;-58
2023/01/31 11:11:54;;;;;;;10.77;3.45;;;;;;;;;;5057712;28;20229;-59
2023/01/31 11:14:20;;;;;;;8.23;2.72;;;;;;;;;;5057634;28;20213;-59
2023/01/31 11:16:47;;;;;;;11.10;2.80;;;;;;;;;;5053499;28;20213;-59
2023/01/31 11:19:17;;;;;;;6.93;2.40;;;;;;;;;;5037924;28;20233;-59
2023/01/31 11:21:48;;;;;;;5.43;2.50;;;;;;;;;;5043802;28;20197;-59
2023/01/31 11:24:16;;;;;;;4.75;2.83;;;;;;;;;;5055599;28;20461;-58
2023/01/31 11:26:48;;;;;;;4.05;2.65;;;;;;;;;;5037967;28;20496;-59
2023/01/31 11:29:18;;;;;;;5.00;2.50;;;;;;;;;;5037984;28;20464;-59
2023/01/31 11:31:46;;;;;;;8.05;2.88;;;;;;;;;;5050586;28;20292;-59
2023/01/31 11:34:19;;;;;;;6.30;2.95;;;;;;;;;;5036747;28;20297;-58
2023/01/31 11:36:46;;;;;;;7.47;2.80;;;;;;;;;;5037790;28;20214;-58
2023/01/31 11:39:26;;;;;;;7.22;2.72;;;;;;;;;;5038072;28;20409;-58
2023/01/31 11:41:52;;;;;;;10.65;2.97;;;;;;;;;;5056448;28;20209;-58
2023/01/31 11:44:21;;;;;;;7.03;2.72;;;;;;;;;;5051741;28;20565;-56
2023/01/31 11:46:49;;;;;;;7.53;2.90;;;;;;;;;;5036099;28;20221;-56
2023/01/31 11:49:21;;;;;;;6.68;2.42;;;;;;;;;;5035767;28;20214;-58
2023/01/31 11:51:48;;;;;;;6.45;2.67;;;;;;;;;;5042668;28;20556;-56
2023/01/31 11:54:17;;;;;;;5.22;2.63;;;;;;;;;;5056652;28;20232;-59
2023/01/31 11:56:44;;;;;;;14.50;5.60;;;;;;;;;;5057937;28;20209;-58
2023/01/31 11:59:13;;;;;;;10.48;2.90;;;;;;;;;;5060383;28;20270;-57
2023/01/31 12:01:45;;;;;;;9.32;2.88;;;;;;;;;;5060428;28;20497;-59
2023/01/31 12:04:15;;;;;;;4.95;2.22;;;;;;;;;;5054282;28;20512;-60
2023/01/31 12:06:41;;;;;;;7.05;2.42;;;;;;;;;;5059701;28;20220;-60
2023/01/31 12:09:20;;;;;;;8.20;2.33;;;;;;;;;;5059867;28;20393;-60
2023/01/31 12:11:50;;;;;;;8.10;2.75;;;;;;;;;;5060720;28;20209;-60
2023/01/31 12:14:18;;;;;;;7.18;2.05;;;;;;;;;;5052460;28;20205;-60
2023/01/31 12:16:46;;;;;;;4.40;2.05;;;;;;;;;;5055761;28;20245;-59
2023/01/31 12:19:20;;;;;;;7.90;2.97;;;;;;;;;;5059500;28;20275;-60
2023/01/31 12:21:56;;;;;;;8.35;2.65;;;;;;;;;;5060004;28;20381;-60
2023/01/31 12:24:28;;;;;;;6.93;2.60;;;;;;;;;;5053190;28;20258;-60
2023/01/31 12:26:55;;;;;;;8.30;2.50;;;;;;;;;;5060869;28;20319;-61
2023/01/31 12:29:40;;;;;;;4.22;2.28;;;;;;;;;;5060381;28;20481;-60
2023/01/31 12:32:14;;;;;;;8.40;2.65;;;;;;;;;;5059611;28;20258;-61
2023/01/31 12:34:48;;;;;;;7.95;2.38;;;;;;;;;;5054024;28;20205;-61
2023/01/31 12:37:21;;;;;;;8.93;2.70;;;;;;;;;;5052059;28;20251;-59
2023/01/31 12:39:55;;;;;;;4.75;2.20;;;;;;;;;;5060367;28;20416;-57
2023/01/31 12:42:25;;;;;;;8.98;2.47;;;;;;;;;;5052161;28;20426;-59
2023/01/31 12:44:57;;;;;;;8.25;2.35;;;;;;;;;;5059941;28;20720;-60
2023/01/31 12:47:44;;;;;;;6.53;1.88;;;;;;;;;;5058950;28;20205;-58
2023/01/31 12:50:16;;;;;;;6.47;2.20;;;;;;;;;;5057572;28;20209;-58
2023/01/31 12:52:47;;;;;;;8.05;2.03;;;;;;;;;;5050425;28;20229;-58
2023/01/31 12:55:19;;;;;;;7.47;2.30;;;;;;;;;;5059088;28;20578;-57
2023/01/31 12:57:48;;;;;;;10.93;2.88;;;;;;;;;;5054411;28;20205;-58
2023/01/31 13:00:26;;;;;;;7.10;2.40;;;;;;;;;;5059707;28;20520;-57
2023/01/31 13:03:03;;;;;;;7.38;2.05;;;;;;;;;;5050026;28;20248;-57
2023/01/31 13:05:32;;;;;;;6.10;2.50;;;;;;;;;;5058671;28;20413;-57
2023/01/31 13:08:02;;;;;;;4.20;2.20;;;;;;;;;;5059977;28;20559;-58
2023/01/31 13:10:33;;;;;;;7.20;2.05;;;;;;;;;;5059291;28;20240;-58
2023/01/31 13:13:00;;;;;;;4.30;1.90;;;;;;;;;;5059275;28;20271;-58
2023/01/31 13:15:29;;;;;;;7.85;1.92;;;;;;;;;;5058896;28;20212;-58
2023/01/31 13:17:59;;;;;;;6.03;2.40;;;;;;;;;;5057829;28;20209;-58
2023/01/31 13:20:28;;;;;;;5.95;1.95;;;;;;;;;;5059371;28;20574;-56
2023/01/31 13:22:56;;;;;;;7.40;2.28;;;;;;;;;;5058788;28;20209;-57
2023/01/31 13:25:24;;;;;;;7.80;2.10;;;;;;;;;;5048451;28;20218;-57
2023/01/31 13:27:56;;;;;;;3.60;2.25;;;;;;;;;;5047409;28;20228;-58
2023/01/31 13:30:27;;;;;;;5.75;2.60;;;;;;;;;;5055851;28;20231;-58
2023/01/31 13:32:55;;;;;;;4.68;2.03;;;;;;;;;;5053375;28;20287;-59
2023/01/31 13:35:24;;;;;;;4.60;2.35;;;;;;;;;;5035742;28;20402;-61
2023/01/31 13:37:53;;;;;;;8.35;2.92;;;;;;;;;;5054608;28;20221;-58
2023/01/31 13:40:20;;;;;;;5.72;2.42;;;;;;;;;;5049519;28;20214;-60
2023/01/31 13:42:47;;;;;;;7.70;2.28;;;;;;;;;;5035434;28;20216;-57
2023/01/31 13:45:21;;;;;;;7.93;1.90;;;;;;;;;;5037376;28;20231;-58
2023/01/31 13:47:50;;;;;;;7.20;3.10;;;;;;;;;;5035701;28;20238;-57
2023/01/31 13:50:23;;;;;;;8.27;2.78;;;;;;;;;;5049161;28;20425;-57
2023/01/31 13:52:52;;;;;;;4.88;2.70;;;;;;;;;;5037116;28;20236;-60
2023/01/31 13:55:20;;;;;;;8.45;3.00;;;;;;;;;;5042789;28;20212;-58
2023/01/31 13:57:51;;;;;;;3.88;2.22;;;;;;;;;;5054425;28;20439;-58
2023/01/31 14:00:27;;;;;;;6.28;2.45;;;;;;;;;;5055192;28;20251;-58
2023/01/31 14:03:03;;;;;;;8.77;2.60;;;;;;;;;;5038750;28;20251;-58
2023/01/31 14:05:49;;;;;;;6.38;2.33;;;;;;;;;;5047974;28;20224;-58
2023/01/31 14:08:32;;;;;;;11.02;2.40;;;;;;;;;;5049968;28;20292;-58
2023/01/31 14:10:59;;;;;;;6.15;2.30;;;;;;;;;;5053896;28;20493;-59
2023/01/31 14:13:27;;;;;;;6.38;2.58;;;;;;;;;;5055046;28;20228;-58
2023/01/31 14:15:54;;;;;;;3.47;2.30;;;;;;;;;;5041553;28;20255;-58
2023/01/31 14:18:37;;;;;;;7.53;2.85;;;;;;;;;;5040244;28;20208;-56
2023/01/31 14:21:21;;;;;;;7.55;2.45;;;;;;;;;;5034453;28;20217;-56
2023/01/31 14:23:49;;;;;;;8.13;2.80;;;;;;;;;;5033888;28;20222;-58
2023/01/31 14:26:32;;;;;;;6.47;2.53;;;;;;;;;;5034290;28;20252;-56
2023/01/31 14:28:58;;;;;;;7.63;2.97;;;;;;;;;;5034701;28;20479;-58
2023/01/31 14:31:26;;;;;;;6.07;3.25;;;;;;;;;;5043965;28;20220;-58
2023/01/31 14:33:56;;;;;;;5.88;3.20;;;;;;;;;;5054243;28;20244;-58
2023/01/31 14:36:37;;;;;;;6.18;3.30;;;;;;;;;;5043058;28;20209;-56
2023/01/31 14:39:18;;;;;;;4.45;2.35;;;;;;;;;;5034041;28;20547;-58
2023/01/31 14:41:53;;;;;;;4.13;3.17;;;;;;;;;;5044321;28;20216;-60
2023/01/31 14:44:26;;;;;;;16.92;3.03;;;;;;;;;;5053638;28;20231;-60
2023/01/31 14:47:12;;;;;;;8.15;2.53;;;;;;;;;;5054465;28;20429;-60
2023/01/31 14:49:48;;;;;;;5.40;2.67;;;;;;;;;;5048656;28;20238;-60
2023/01/31 14:52:25;;;;;;;5.93;2.60;;;;;;;;;;5034473;28;20260;-60
2023/01/31 14:54:59;;;;;;;9.02;3.10;;;;;;;;;;5038583;28;20201;-60